Orchard Park, NY

7:49 AM EDT on June 27, 2017 (GMT -0400)
Hawthorne Dr. | | Change Station
Active Advisory: Beach Hazard Statement

Elev 787 ft 42.78 °N, 78.74 °W | Updated 2 seconds ago

Overcast
Overcast
53.9 °F
Feels Like 53.9 °F
N
2.0
Wind Variable Wind from ESE
Gusts 5.0 mph

Today
High -- | Low -- °F
--% Chance of Precip.
Yesterday
High -- | Low -- °F
Precip. -- in
Pressure 29.96 in
Visibility 10.0 miles
Clouds Few 2000 ft
Scattered Clouds 4500 ft
Overcast 11000 ft
Dew Point 52 °F
Humidity 94%
Rainfall 0.27 in
Snow Depth Not available.
5:38 AM 8:57 PM
Waxing Crescent, 16% visible
METAR KBUF 271054Z 22004KT 10SM FEW020 SCT045 OVC110 13/10 A2995 RMK AO2 RAE0955B11E31 SLP143 P0000 T01280100
Pressure 29.96 in
Visibility 10.0 miles
Clouds Few 2000 ft
Scattered Clouds 4500 ft
Overcast 11000 ft
Dew Point 52 °F
Humidity 94%
Rainfall 0.27 in
Snow Depth Not available.
5:38 AM 8:57 PM
Waxing Crescent, 16% visible
METAR KBUF 271054Z 22004KT 10SM FEW020 SCT045 OVC110 13/10 A2995 RMK AO2 RAE0955B11E31 SLP143 P0000 T01280100

Get Your Daily Forecast Email!

Thanks for signing up!

Be on the lookout for a verification email in your inbox.

You'll start receiving severe weather alerts in your inbox..

×

10-Day Weather Forecast

Almanac

Astronomy

Jun. 27, 2017 Rise Set
Actual Time
Civil Twilight
Nautical Twilight
Astronomical Twilight
Moon
Length of Visible Light
Length of Day
Tomorrow will be .
, % of the Moon is Illuminated

Today's Extremes

State Highs State Lows

Community

WunderPhotos

Category 6

Welcome to Category 6. This is the collective home for Weather Underground's featured writeups by Dr. Jeff Masters (right), Bob Henson (left), Chris Burt, and other regular contributors.

Nearby

Air Quality

  Air Quality AQ Index Pollutant
Not available.

Snow Depth

Station Depth Elevation

Earthquake Activity

City Distance Mag. Time & Date
Minimum magnitude displayed is 2.5.

Coastal Water Temperatures

Place Temperature

Stations

Nearby Weather Stations

Station Location Temp. Windchill Dew Point Humidity Wind Precip. Elev Updated Type
                   

Watches & Warnings

Beach Hazard Statement
Issued: 4:45 AM EDT Jun. 27, 2017 – National Weather Service

... Beach hazards statement remains in effect through this
evening...

* locations... beaches of Chautauqua and southern Erie counties.

* Timing... from early this morning through late this evening.

* Impacts... strong currents and dangerous swimming conditions.

Precautionary/preparedness actions...

A beach hazards statement is issued when there is a high swim
risk. This means life threatening waves and currents are
expected. Stay out of the water and stay away from dangerous
areas like piers and breakwalls.